Broadus, MT

10:19 PM MDT on May 28, 2015 (GMT -0600)
Hulett | | Change Station
CLOSE
Current Station
Airport
Location: Hulett,
Elevation: 4265 ft
Nearby Weather Stations
Active Advisory: Areal Flood Warning

Elev 4265 ft 44.66 °N, 104.57 °W | Updated 24 minutes ago

Rain
Rain
55 °F
Feels Like 55 °F
N
0
Wind Variable Wind from North

Today
High -- | Low -- °F
--% Chance of Precip.
Yesterday
High -- | Low -- °F
Precip. -- in
5:19 AM 8:39 PM
Waxing Gibbous, 81% visible
Pressure 30.10 in
Visibility 10.0 miles
Clouds Scattered Clouds 2000 ft
Scattered Clouds 4900 ft
Mostly Cloudy 8500 ft
Dew Point 50 °F
Humidity 82%
Rainfall 0.90 in
Snow Depth Not available.
UV 0 out of 12
Pollen 8.40 out of 12
Air Quality Not available.
Flu Activity Sporadic
METAR KW43 290355Z AUTO 00000KT 10SM SCT020 SCT049 BKN085 13/10 A3010 RMK AO2

More Conditions Fewer Conditions

Pressure 30.10 in
Visibility 10.0 miles
Clouds Scattered Clouds 2000 ft
Scattered Clouds 4900 ft
Mostly Cloudy 8500 ft
Dew Point 50 °F
Humidity 82%
Rainfall 0.90 in
Snow Depth Not available.
UV 0 out of 12
Pollen 8.40 out of 12
Air Quality Not available.
Flu Activity Sporadic
METAR KW43 290355Z AUTO 00000KT 10SM SCT020 SCT049 BKN085 13/10 A3010 RMK AO2

More Conditions Fewer Conditions

10-Day Weather Forecast

Almanac

Astronomy

May. 28, 2015 Rise Set
Actual Time
Civil Twilight
Nautical Twilight
Astronomical Twilight
Moon
Length of Visible Light
Length of Day
Tomorrow will be .
, % of the Moon is Illuminated

Today's Extremes

State Highs State Lows

Community

WunderPhotos

Upload Photos

1,825,188 photos uploaded!

WunderBlogs® & News

Nearby

Air Quality

  Air Quality AQ Index Pollutant
Not available.

Snow Depth

Station Depth Elevation

Earthquake Activity

City Distance Mag. Time & Date
Minimum magnitude displayed is 2.5.

Coastal Water Temperatures

Place Temperature

Stations

Nearby Weather Stations

Station Location Temp. Windchill Dew Point Humidity Wind Precip. Elev Updated Type
                   
Areal Flood Warning
Statement as of 10:24 AM MDT on May 28, 2015

... A Flood Warning remains in effect until 330 PM MDT Friday for
central Powder River County...

The Powder River in Powder River County is expected to crest today
at Moorhead between 11 and 12 feet. River levels should also crest
downstream at Broadus and Powderville later today or tonight as
well. Current locations affected by rural lowland flooding should
begin to see receding water levels by Friday morning... though any
heavy rainfall today upstream may slow or delay The Retreat of water
levels.

Precautionary/preparedness actions...

Keep cattle and farm equipment on higher ground. Do not attempt to
travel across flooded roads. Find alternate routes.


Lat... Lon 4512 10588 4545 10544 4569 10527 4579 10511
      4579 10503 4563 10521 4544 10532 4510 10582
      4500 10589 4499 10595


Tesar